This is the latest recevied weather packets stored in our database for station/object HB9CYX-13. If no packets are shown the sender has not sent any weather packets the latest 1 day(s).
| Time | Temp. | Humidity | Pressure | Rain* | Wind** | Luminosity | Snow |
|---|---|---|---|---|---|---|---|
| 1778093305 | 10° C | 77% | 1013.1 hPa | 0 mm | - | - | - |
| 1778092568 | 10.56° C | 76% | 1012.9 hPa | 0 mm | - | - | - |
| 1778089619 | 11.11° C | 73% | 1012.3 hPa | 0 mm | - | - | - |
| 1778088882 | 11.11° C | 75% | 1012.3 hPa | 0 mm | - | - | - |
| 1778085933 | 11.11° C | 75% | 1011.9 hPa | 0 mm | - | - | - |
| 1778085195 | 11.11° C | 75% | 1012 hPa | 0 mm | - | - | - |
| 1778082246 | 11.67° C | 75% | 1011.8 hPa | 0 mm | - | - | - |
| 1778079297 | 11.11° C | 75% | 1011.9 hPa | 0 mm | - | - | - |
| 1778075611 | 11.11° C | 85% | 1011.5 hPa | 0 mm | - | - | - |
| 1778074874 | 11.11° C | 85% | 1011.5 hPa | 0.25 mm | - | - | - |
| 1778074137 | 10.56° C | 85% | 1011.6 hPa | 0.76 mm | - | - | - |
| 1778072662 | 10° C | 88% | 1011.8 hPa | 1.78 mm | - | - | - |
| 1778071925 | 10° C | 89% | 1011.8 hPa | 2.03 mm | - | - | - |
| 1778067497 | 10° C | 83% | 1011 hPa | 0.51 mm | - | - | - |
| 1778066760 | 10.56° C | 84% | 1010.4 hPa | 0.25 mm | - | - | - |
| 1778066022 | 11.67° C | 82% | 1010 hPa | 0 mm | - | - | - |
| 1778063811 | 13.33° C | 76% | 1009.6 hPa | 0 mm | - | - | - |
| 1778063074 | 13.89° C | 74% | 1009.5 hPa | 0.25 mm | - | - | - |
| 1778060862 | 13.89° C | 76% | 1009.3 hPa | 0.25 mm | - | - | - |
| 1778060125 | 13.89° C | 81% | 1009.3 hPa | 0.25 mm | - | - | - |
| 1778059388 | 12.22° C | 82% | 1009.6 hPa | 0 mm | - | - | - |
| 1778056439 | 12.22° C | 79% | 1009.3 hPa | 0 mm | - | - | - |
| 1778055702 | 12.22° C | 78% | 1009.3 hPa | 0 mm | - | - | - |
| 1778054965 | 12.22° C | 78% | 1009.3 hPa | 0 mm | - | - | - |
| 1778052753 | 12.78° C | 78% | 1009 hPa | 0 mm | - | - | - |
* Rain latest hour (hover to see other rain measurements)
** Current wind speed in m/s (hover to see current wind gust speed)